Map

Track Data

SID SEASON NUMBER BASIN SUBBASIN NAME ISO_TIME NATURE LAT LON WMO_WIND WMO_PRES WMO_AGENCY TRACK_TYPE DIST2LAND LANDFALL IFLAG USA_AGENCY USA_ATCF_ID USA_LAT USA_LON USA_RECORD USA_STATUS USA_WIND USA_PRES USA_SSHS USA_R34_NE USA_R34_SE USA_R34_SW USA_R34_NW USA_R50_NE USA_R50_SE USA_R50_SW USA_R50_NW USA_R64_NE USA_R64_SE USA_R64_SW USA_R64_NW USA_POCI USA_ROCI USA_RMW USA_EYE TOKYO_LAT TOKYO_LON TOKYO_GRADE TOKYO_WIND TOKYO_PRES TOKYO_R50_DIR TOKYO_R50_LONG TOKYO_R50_SHORT TOKYO_R30_DIR TOKYO_R30_LONG TOKYO_R30_SHORT TOKYO_LAND CMA_LAT CMA_LON CMA_CAT CMA_WIND CMA_PRES HKO_LAT HKO_LON HKO_CAT HKO_WIND HKO_PRES NEWDELHI_LAT NEWDELHI_LON NEWDELHI_GRADE NEWDELHI_WIND NEWDELHI_PRES NEWDELHI_CI NEWDELHI_DP NEWDELHI_POCI REUNION_LAT REUNION_LON REUNION_TYPE REUNION_WIND REUNION_PRES REUNION_TNUM REUNION_CI REUNION_RMW REUNION_R34_NE REUNION_R34_SE REUNION_R34_SW REUNION_R34_NW REUNION_R50_NE REUNION_R50_SE REUNION_R50_SW REUNION_R50_NW REUNION_R64_NE REUNION_R64_SE REUNION_R64_SW REUNION_R64_NW BOM_LAT BOM_LON BOM_TYPE BOM_WIND BOM_PRES BOM_TNUM BOM_CI BOM_RMW BOM_R34_NE BOM_R34_SE BOM_R34_SW BOM_R34_NW BOM_R50_NE BOM_R50_SE BOM_R50_SW BOM_R50_NW BOM_R64_NE BOM_R64_SE BOM_R64_SW BOM_R64_NW BOM_ROCI BOM_POCI BOM_EYE BOM_POS_METHOD BOM_PRES_METHOD NADI_LAT NADI_LON NADI_CAT NADI_WIND NADI_PRES WELLINGTON_LAT WELLINGTON_LON WELLINGTON_WIND WELLINGTON_PRES DS824_LAT DS824_LON DS824_STAGE DS824_WIND DS824_PRES TD9636_LAT TD9636_LON TD9636_STAGE TD9636_WIND TD9636_PRES TD9635_LAT TD9635_LON TD9635_WIND TD9635_PRES TD9635_ROCI NEUMANN_LAT NEUMANN_LON NEUMANN_CLASS NEUMANN_WIND NEUMANN_PRES MLC_LAT MLC_LON MLC_CLASS MLC_WIND MLC_PRES USA_GUST BOM_GUST BOM_GUST_PER REUNION_GUST REUNION_GUST_PER USA_SEAHGT USA_SEARAD_NE USA_SEARAD_SE USA_SEARAD_SW USA_SEARAD_NW STORM_SPEED STORM_DIR
1912298N12133 1912 57 WP MM NOT_NAMED 1912-10-23 16:00:00 NR 11.6000 133.400 main 831 757 __________O___ -1 11.6000 133.400 7 22 287
1912298N12133 1912 57 WP MM NOT_NAMED 1912-10-23 18:00:00 NR 11.8201 132.684 main 757 644 __________P___ -1 11.8201 132.684 7 22 287
1912298N12133 1912 57 WP MM NOT_NAMED 1912-10-23 21:00:00 NR 12.1347 131.646 main 644 556 __________P___ -1 12.1347 131.646 7 20 287
1912298N12133 1912 57 WP MM NOT_NAMED 1912-10-24 00:00:00 NR 12.4138 130.704 main 556 480 __________P___ -1 12.4138 130.704 7 18 287
1912298N12133 1912 57 WP MM NOT_NAMED 1912-10-24 03:00:00 NR 12.6396 129.917 main 480 459 __________P___ -1 12.6396 129.917 7 15 286
1912298N12133 1912 57 WP MM NOT_NAMED 1912-10-24 04:00:00 NR 12.7000 129.700 main 459 418 __________O___ -1 12.7000 129.700 7 12 286
1912298N12133 1912 57 WP MM NOT_NAMED 1912-10-24 06:00:00 NR 12.7972 129.340 main 418 377 __________P___ -1 12.7972 129.340 7 9 285
1912298N12133 1912 57 WP MM NOT_NAMED 1912-10-24 09:00:00 NR 12.9000 128.945 main 377 358 __________P___ -1 12.9000 128.945 7 7 285
1912298N12133 1912 57 WP MM NOT_NAMED 1912-10-24 12:00:00 NR 12.9790 128.656 main 358 327 __________P___ -1 12.9790 128.656 7 6 287
1912298N12133 1912 57 WP MM NOT_NAMED 1912-10-24 15:00:00 NR 13.0647 128.395 main 330 320 __________P___ -1 13.0647 128.395 7 6 289
1912298N12133 1912 57 WP MM NOT_NAMED 1912-10-24 16:00:00 NR 13.1000 128.300 main 320 293 __________O___ -1 13.1000 128.300 7 7 291
1912298N12133 1912 57 WP MM NOT_NAMED 1912-10-24 18:00:00 NR 13.1996 128.037 main 293 264 __________P___ -1 13.1996 128.037 7 8 292
1912298N12133 1912 57 WP MM NOT_NAMED 1912-10-24 21:00:00 NR 13.3678 127.630 main 264 234 __________P___ -1 13.3678 127.630 7 9 294
1912298N12133 1912 57 WP MM NOT_NAMED 1912-10-25 00:00:00 NR 13.5504 127.221 main 242 218 __________P___ -1 13.5504 127.221 7 9 295
1912298N12133 1912 57 WP MM NOT_NAMED 1912-10-25 03:00:00 NR 13.7380 126.826 main 218 218 __________P___ -1 13.7380 126.826 7 8 296
1912298N12133 1912 57 WP MM NOT_NAMED 1912-10-25 04:00:00 NR 13.8000 126.700 main 218 210 __________O___ -1 13.8000 126.700 7 8 297
1912298N12133 1912 57 WP MM NOT_NAMED 1912-10-25 06:00:00 NR 13.9191 126.458 main 210 184 __________P___ -1 13.9191 126.458 7 8 298
1912298N12133 1912 57 WP MM NOT_NAMED 1912-10-25 09:00:00 NR 14.0981 126.114 main 184 154 __________P___ -1 14.0981 126.114 7 7 299
1912298N12133 1912 57 WP MM NOT_NAMED 1912-10-25 12:00:00 NR 14.2744 125.793 main 157 131 __________P___ -1 14.2744 125.793 7 7 300
1912298N12133 1912 57 WP MM NOT_NAMED 1912-10-25 15:00:00 NR 14.4450 125.495 main 131 127 __________P___ -1 14.4450 125.495 7 7 301
1912298N12133 1912 57 WP MM NOT_NAMED 1912-10-25 16:00:00 NR 14.5000 125.400 main 127 116 __________O___ -1 14.5000 125.400 7 6 300
1912298N12133 1912 57 WP MM NOT_NAMED 1912-10-25 18:00:00 NR 14.5922 125.237 main 116 108 __________P___ -1 14.5922 125.237 7 5 301
1912298N12133 1912 57 WP MM NOT_NAMED 1912-10-25 21:00:00 NR 14.7242 125.011 main 108 104 __________P___ -1 14.7242 125.011 7 5 302
1912298N12133 1912 57 WP MM NOT_NAMED 1912-10-26 00:00:00 NR 14.8652 124.779 main 114 109 __________P___ -1 14.8652 124.779 7 6 302
1912298N12133 1912 57 WP MM NOT_NAMED 1912-10-26 03:00:00 NR 15.0342 124.506 main 114 114 __________P___ -1 15.0342 124.506 7 7 303
1912298N12133 1912 57 WP MM NOT_NAMED 1912-10-26 04:00:00 NR 15.1000 124.400 main 123 123 __________O___ -1 15.1000 124.400 2 8 302
1912298N12133 1912 57 WP MM NOT_NAMED 1912-10-26 06:00:00 NR 15.2496 124.151 main 134 145 __________P___ -1 15.2496 124.151 2 9 302
1912298N12133 1912 57 WP MM NOT_NAMED 1912-10-26 09:00:00 NR 15.5054 123.727 main 169 125 __________P___ -1 15.5054 123.727 2 10 302
1912298N12133 1912 57 WP MM NOT_NAMED 1912-10-26 12:00:00 NR 15.7904 123.259 main 125 65 __________P___ -1 15.7904 123.259 2 11 303
1912298N12133 1912 57 WP MM NOT_NAMED 1912-10-26 15:00:00 NR 16.0954 122.766 main 65 42 __________P___ -1 16.0954 122.766 2 11 303
1912298N12133 1912 57 WP MM NOT_NAMED 1912-10-26 16:00:00 NR 16.2000 122.600 main 42 10 __________O___ -1 16.2000 122.600 2 12 303
1912298N12133 1912 57 WP MM NOT_NAMED 1912-10-26 18:00:00 NR 16.4134 122.252 main 10 0 __________P___ -1 16.4134 122.252 2 12 303
1912298N12133 1912 57 WP MM NOT_NAMED 1912-10-26 21:00:00 NR 16.7462 121.717 main 0 0 __________P___ -1 16.7462 121.717 2 12 303
1912298N12133 1912 57 WP MM NOT_NAMED 1912-10-27 00:00:00 NR 17.0801 121.199 main 0 0 __________P___ -1 17.0801 121.199 2 11 305
1912298N12133 1912 57 WP MM NOT_NAMED 1912-10-27 03:00:00 NR 17.3994 120.736 main 0 0 __________P___ -1 17.3994 120.736 2 11 306
1912298N12133 1912 57 WP MM NOT_NAMED 1912-10-27 04:00:00 NR 17.5000 120.600 main 0 0 __________O___ -1 17.5000 120.600 2 9 309
1912298N12133 1912 57 WP MM NOT_NAMED 1912-10-27 06:00:00 NR 17.6806 120.373 main 0 0 __________P___ -1 17.6806 120.373 2 8 312
1912298N12133 1912 57 WP MM NOT_NAMED 1912-10-27 09:00:00 NR 17.9331 120.096 main 38 38 __________P___ -1 17.9331 120.096 2 7 316
1912298N12133 1912 57 WP MM NOT_NAMED 1912-10-27 12:00:00 NR 18.1744 119.870 main 64 64 __________P___ -1 18.1744 119.870 2 6 320
1912298N12133 1912 57 WP MM NOT_NAMED 1912-10-27 15:00:00 NR 18.4168 119.667 main 90 90 __________P___ -1 18.4168 119.667 2 6 322
1912298N12133 1912 57 WP MM NOT_NAMED 1912-10-27 16:00:00 NR 18.5000 119.600 main 105 105 __________O___ -1 18.5000 119.600 2 7 320
1912298N12133 1912 57 WP MM NOT_NAMED 1912-10-27 18:00:00 NR 18.6829 119.431 main 130 130 __________P___ -1 18.6829 119.431 2 7 320
1912298N12133 1912 57 WP MM NOT_NAMED 1912-10-27 21:00:00 NR 18.9636 119.184 main 162 162 __________P___ -1 18.9636 119.184 2 7 321
1912298N12133 1912 57 WP MM NOT_NAMED 1912-10-28 00:00:00 NR 19.2438 118.955 main 190 205 __________P___ -1 19.2438 118.955 2 7 324
1912298N12133 1912 57 WP MM NOT_NAMED 1912-10-28 03:00:00 NR 19.5138 118.757 main 225 234 __________P___ -1 19.5138 118.757 2 6 326
1912298N12133 1912 57 WP MM NOT_NAMED 1912-10-28 04:00:00 NR 19.6000 118.700 main 240 240 __________O___ -1 19.6000 118.700 2 6 328
1912298N12133 1912 57 WP MM NOT_NAMED 1912-10-28 06:00:00 NR 19.7534 118.602 main 262 262 __________P___ -1 19.7534 118.602 2 5 331
1912298N12133 1912 57 WP MM NOT_NAMED 1912-10-28 09:00:00 NR 19.9709 118.486 main 284 284 __________P___ -1 19.9709 118.486 2 5 336
1912298N12133 1912 57 WP MM NOT_NAMED 1912-10-28 12:00:00 NR 20.1870 118.398 main 305 298 __________P___ -1 20.1870 118.398 2 5 341
1912298N12133 1912 57 WP MM NOT_NAMED 1912-10-28 15:00:00 NR 20.4174 118.324 main 300 293 __________P___ -1 20.4174 118.324 2 5 344
1912298N12133 1912 57 WP MM NOT_NAMED 1912-10-28 16:00:00 NR 20.5000 118.300 main 293 282 __________O___ -1 20.5000 118.300 2 5 345
1912298N12133 1912 57 WP MM NOT_NAMED 1912-10-28 18:00:00 NR 20.6763 118.252 main 282 274 __________P___ -1 20.6763 118.252 2 6 346
1912298N12133 1912 57 WP MM NOT_NAMED 1912-10-28 21:00:00 NR 20.9642 118.178 main 274 243 __________P___ -1 20.9642 118.178 2 6 347
1912298N12133 1912 57 WP MM NOT_NAMED 1912-10-29 00:00:00 NR 21.2724 118.102 main 243 211 __________P___ -1 21.2724 118.102 2 6 347
1912298N12133 1912 57 WP MM NOT_NAMED 1912-10-29 03:00:00 NR 21.5923 118.026 main 211 204 __________P___ -1 21.5923 118.026 2 7 347
1912298N12133 1912 57 WP MM NOT_NAMED 1912-10-29 04:00:00 NR 21.7000 118.000 main 204 __________O___ -1 21.7000 118.000 7 7 0

Digital Typhoon Data and Search

About IBTrACS Database

This database is a web-friendly format of International Best Track Archive for Climate Stewardship (IBTrACS), a global best track data archive curated by NOAA dating back to 1842.

Updated: 2021-10-21